Terminal Aerodrome Forecast
Issued by NWS

Home | Current Version | Previous Version | Text Only | Print | Product List | Glossary On
Versions: 1 2 3 4 5 6 7 8 9 10 11 12 13 14 15 16 17 18 19 20 21 22 23 24 25 26 27 28 29 30 31 32 33 34 35 36 37 38 39 40 41 42 43 44 45 46 47 48 49 50
000
FTUS42 KMFL 232118 AAB
TAFOPF
TAF AMD
KOPF 232118Z 2321/2418 16012KT P6SM VCSH SCT030 BKN070
      TEMPO 2321/2322 VRB15G25KT 5SM TSRA BR BKN030CB
     FM240000 16010KT P6SM VCSH FEW030 BKN050
     FM240300 17005KT P6SM SCT050 BKN250
     FM240600 21005KT P6SM VCSH SCT035 SCT250
     FM241400 22010KT P6SM SCT025=

USA.gov is the U.S. government's official web portal to all federal, state and local government web resources and services.